sensor_id;sensor_type;location;lat;lon;timestamp;P1;durP1;ratioP1;P2;durP2;ratioP2
11743;SDS011;5929;51.906;7.674;2022-11-20T00:00:23;30.38;;;18.00;;
11743;SDS011;5929;51.906;7.674;2022-11-20T00:02:50;30.17;;;18.55;;
11743;SDS011;5929;51.906;7.674;2022-11-20T00:05:19;29.20;;;17.40;;
11743;SDS011;5929;51.906;7.674;2022-11-20T00:07:47;34.42;;;19.83;;
11743;SDS011;5929;51.906;7.674;2022-11-20T00:10:14;33.03;;;19.45;;
11743;SDS011;5929;51.906;7.674;2022-11-20T00:12:41;38.25;;;21.67;;
11743;SDS011;5929;51.906;7.674;2022-11-20T00:15:10;38.72;;;20.80;;
11743;SDS011;5929;51.906;7.674;2022-11-20T00:17:37;32.28;;;18.88;;
11743;SDS011;5929;51.906;7.674;2022-11-20T00:20:04;30.25;;;18.10;;
11743;SDS011;5929;51.906;7.674;2022-11-20T00:22:32;29.17;;;19.15;;
11743;SDS011;5929;51.906;7.674;2022-11-20T00:25:00;34.38;;;17.65;;
11743;SDS011;5929;51.906;7.674;2022-11-20T00:27:28;33.58;;;18.05;;
11743;SDS011;5929;51.906;7.674;2022-11-20T00:29:56;31.23;;;18.83;;
11743;SDS011;5929;51.906;7.674;2022-11-20T00:32:23;34.17;;;18.80;;
11743;SDS011;5929;51.906;7.674;2022-11-20T00:34:52;30.50;;;18.55;;
11743;SDS011;5929;51.906;7.674;2022-11-20T00:37:19;31.30;;;19.38;;
11743;SDS011;5929;51.906;7.674;2022-11-20T00:39:46;28.95;;;18.60;;
11743;SDS011;5929;51.906;7.674;2022-11-20T00:42:14;30.75;;;18.10;;
11743;SDS011;5929;51.906;7.674;2022-11-20T00:44:41;31.55;;;17.35;;
11743;SDS011;5929;51.906;7.674;2022-11-20T00:47:07;33.13;;;18.60;;
11743;SDS011;5929;51.906;7.674;2022-11-20T00:49:34;36.63;;;20.88;;
11743;SDS011;5929;51.906;7.674;2022-11-20T00:52:01;32.35;;;18.55;;
11743;SDS011;5929;51.906;7.674;2022-11-20T00:54:28;30.15;;;18.63;;
11743;SDS011;5929;51.906;7.674;2022-11-20T00:56:55;33.00;;;18.25;;
11743;SDS011;5929;51.906;7.674;2022-11-20T00:59:23;32.58;;;16.75;;
11743;SDS011;5929;51.906;7.674;2022-11-20T01:01:50;29.08;;;17.70;;
11743;SDS011;5929;51.906;7.674;2022-11-20T01:04:16;28.75;;;17.77;;
11743;SDS011;5929;51.906;7.674;2022-11-20T01:06:43;30.35;;;17.90;;
11743;SDS011;5929;51.906;7.674;2022-11-20T01:09:11;35.60;;;19.60;;
11743;SDS011;5929;51.906;7.674;2022-11-20T01:11:40;27.85;;;16.17;;
11743;SDS011;5929;51.906;7.674;2022-11-20T01:14:10;27.70;;;16.05;;
11743;SDS011;5929;51.906;7.674;2022-11-20T01:16:40;31.75;;;15.75;;
11743;SDS011;5929;51.906;7.674;2022-11-20T01:19:10;31.20;;;17.52;;
11743;SDS011;5929;51.906;7.674;2022-11-20T01:21:40;29.33;;;17.50;;
11743;SDS011;5929;51.906;7.674;2022-11-20T01:24:10;33.35;;;17.00;;
11743;SDS011;5929;51.906;7.674;2022-11-20T01:26:40;28.08;;;17.15;;
11743;SDS011;5929;51.906;7.674;2022-11-20T01:29:08;27.35;;;15.50;;
11743;SDS011;5929;51.906;7.674;2022-11-20T01:31:47;28.80;;;15.38;;
11743;SDS011;5929;51.906;7.674;2022-11-20T01:34:15;28.55;;;16.05;;
11743;SDS011;5929;51.906;7.674;2022-11-20T01:36:43;26.00;;;15.77;;
11743;SDS011;5929;51.906;7.674;2022-11-20T01:39:12;26.60;;;15.35;;
11743;SDS011;5929;51.906;7.674;2022-11-20T01:41:41;25.00;;;14.63;;
11743;SDS011;5929;51.906;7.674;2022-11-20T01:47:23;25.10;;;15.00;;
11743;SDS011;5929;51.906;7.674;2022-11-20T01:49:55;27.17;;;16.20;;
11743;SDS011;5929;51.906;7.674;2022-11-20T01:52:26;26.35;;;15.70;;
11743;SDS011;5929;51.906;7.674;2022-11-20T01:55:00;30.20;;;16.98;;
11743;SDS011;5929;51.906;7.674;2022-11-20T01:57:31;32.88;;;17.33;;
11743;SDS011;5929;51.906;7.674;2022-11-20T02:00:02;29.95;;;16.25;;
11743;SDS011;5929;51.906;7.674;2022-11-20T02:02:34;29.92;;;16.67;;
11743;SDS011;5929;51.906;7.674;2022-11-20T02:05:02;26.05;;;15.73;;
11743;SDS011;5929;51.906;7.674;2022-11-20T02:07:40;29.55;;;16.15;;
11743;SDS011;5929;51.906;7.674;2022-11-20T02:10:08;29.15;;;16.13;;
11743;SDS011;5929;51.906;7.674;2022-11-20T02:12:37;27.98;;;16.25;;
11743;SDS011;5929;51.906;7.674;2022-11-20T02:15:24;26.35;;;15.85;;
11743;SDS011;5929;51.906;7.674;2022-11-20T02:17:52;30.10;;;18.20;;
11743;SDS011;5929;51.906;7.674;2022-11-20T02:20:19;30.23;;;17.05;;
11743;SDS011;5929;51.906;7.674;2022-11-20T02:22:47;32.90;;;16.67;;
11743;SDS011;5929;51.906;7.674;2022-11-20T02:25:24;26.38;;;16.67;;
11743;SDS011;5929;51.906;7.674;2022-11-20T02:27:53;29.58;;;15.85;;
11743;SDS011;5929;51.906;7.674;2022-11-20T02:30:21;27.88;;;16.70;;
11743;SDS011;5929;51.906;7.674;2022-11-20T02:32:48;29.50;;;16.70;;
11743;SDS011;5929;51.906;7.674;2022-11-20T02:38:07;28.35;;;16.50;;
11743;SDS011;5929;51.906;7.674;2022-11-20T02:40:35;26.92;;;16.48;;
11743;SDS011;5929;51.906;7.674;2022-11-20T02:43:02;27.85;;;17.20;;
11743;SDS011;5929;51.906;7.674;2022-11-20T02:45:29;27.52;;;15.20;;
11743;SDS011;5929;51.906;7.674;2022-11-20T02:47:56;25.10;;;15.18;;
11743;SDS011;5929;51.906;7.674;2022-11-20T02:50:23;25.55;;;15.38;;
11743;SDS011;5929;51.906;7.674;2022-11-20T02:52:50;23.90;;;14.95;;
11743;SDS011;5929;51.906;7.674;2022-11-20T02:55:17;27.75;;;16.20;;
11743;SDS011;5929;51.906;7.674;2022-11-20T02:57:45;30.85;;;16.95;;
11743;SDS011;5929;51.906;7.674;2022-11-20T03:00:12;32.65;;;16.30;;
11743;SDS011;5929;51.906;7.674;2022-11-20T03:02:42;27.45;;;16.63;;
11743;SDS011;5929;51.906;7.674;2022-11-20T03:05:09;26.70;;;17.20;;
11743;SDS011;5929;51.906;7.674;2022-11-20T03:07:36;28.30;;;17.02;;
11743;SDS011;5929;51.906;7.674;2022-11-20T03:10:03;29.10;;;16.75;;
11743;SDS011;5929;51.906;7.674;2022-11-20T03:12:30;27.40;;;16.58;;
11743;SDS011;5929;51.906;7.674;2022-11-20T03:14:58;27.42;;;17.20;;
11743;SDS011;5929;51.906;7.674;2022-11-20T03:17:25;29.02;;;15.80;;
11743;SDS011;5929;51.906;7.674;2022-11-20T03:19:52;27.40;;;15.07;;
11743;SDS011;5929;51.906;7.674;2022-11-20T03:22:22;26.40;;;14.80;;
11743;SDS011;5929;51.906;7.674;2022-11-20T03:24:51;30.00;;;16.27;;
11743;SDS011;5929;51.906;7.674;2022-11-20T03:27:21;26.83;;;16.00;;
11743;SDS011;5929;51.906;7.674;2022-11-20T03:29:48;24.95;;;14.82;;
11743;SDS011;5929;51.906;7.674;2022-11-20T03:32:16;25.27;;;15.25;;
11743;SDS011;5929;51.906;7.674;2022-11-20T03:34:43;23.27;;;14.48;;
11743;SDS011;5929;51.906;7.674;2022-11-20T03:37:09;24.67;;;14.60;;
11743;SDS011;5929;51.906;7.674;2022-11-20T03:39:38;24.70;;;14.98;;
11743;SDS011;5929;51.906;7.674;2022-11-20T03:42:05;25.38;;;14.77;;
11743;SDS011;5929;51.906;7.674;2022-11-20T03:44:52;24.55;;;15.10;;
11743;SDS011;5929;51.906;7.674;2022-11-20T03:47:21;24.58;;;13.50;;
11743;SDS011;5929;51.906;7.674;2022-11-20T03:49:47;26.00;;;14.70;;
11743;SDS011;5929;51.906;7.674;2022-11-20T03:52:14;28.08;;;15.82;;
11743;SDS011;5929;51.906;7.674;2022-11-20T03:54:41;23.15;;;14.63;;
11743;SDS011;5929;51.906;7.674;2022-11-20T03:57:08;24.55;;;14.15;;
11743;SDS011;5929;51.906;7.674;2022-11-20T03:59:35;28.95;;;16.27;;
11743;SDS011;5929;51.906;7.674;2022-11-20T04:02:01;26.13;;;15.48;;
11743;SDS011;5929;51.906;7.674;2022-11-20T04:04:30;25.25;;;15.07;;
11743;SDS011;5929;51.906;7.674;2022-11-20T04:06:56;27.02;;;14.85;;
11743;SDS011;5929;51.906;7.674;2022-11-20T04:09:26;24.63;;;15.50;;
11743;SDS011;5929;51.906;7.674;2022-11-20T04:11:53;24.23;;;15.40;;
11743;SDS011;5929;51.906;7.674;2022-11-20T04:14:19;26.40;;;15.93;;
11743;SDS011;5929;51.906;7.674;2022-11-20T04:16:46;25.00;;;14.35;;
11743;SDS011;5929;51.906;7.674;2022-11-20T04:19:14;28.25;;;14.65;;
11743;SDS011;5929;51.906;7.674;2022-11-20T04:21:43;24.67;;;14.65;;
11743;SDS011;5929;51.906;7.674;2022-11-20T04:24:10;22.95;;;13.25;;
11743;SDS011;5929;51.906;7.674;2022-11-20T04:26:37;24.98;;;14.00;;
11743;SDS011;5929;51.906;7.674;2022-11-20T04:29:05;24.92;;;15.45;;
11743;SDS011;5929;51.906;7.674;2022-11-20T04:31:32;24.65;;;15.80;;
11743;SDS011;5929;51.906;7.674;2022-11-20T04:34:00;25.77;;;15.65;;
11743;SDS011;5929;51.906;7.674;2022-11-20T04:36:28;26.92;;;16.27;;
11743;SDS011;5929;51.906;7.674;2022-11-20T04:38:57;23.95;;;15.00;;
11743;SDS011;5929;51.906;7.674;2022-11-20T04:41:26;28.42;;;15.73;;
11743;SDS011;5929;51.906;7.674;2022-11-20T04:43:55;26.02;;;16.35;;
11743;SDS011;5929;51.906;7.674;2022-11-20T04:46:24;26.65;;;16.23;;
11743;SDS011;5929;51.906;7.674;2022-11-20T04:48:52;25.88;;;15.32;;
11743;SDS011;5929;51.906;7.674;2022-11-20T04:51:22;26.05;;;16.20;;
11743;SDS011;5929;51.906;7.674;2022-11-20T04:53:49;30.05;;;17.17;;
11743;SDS011;5929;51.906;7.674;2022-11-20T04:56:17;26.90;;;15.23;;
11743;SDS011;5929;51.906;7.674;2022-11-20T04:58:44;24.02;;;14.43;;
11743;SDS011;5929;51.906;7.674;2022-11-20T05:01:12;22.55;;;14.60;;
11743;SDS011;5929;51.906;7.674;2022-11-20T05:03:41;26.75;;;16.73;;
11743;SDS011;5929;51.906;7.674;2022-11-20T05:06:08;26.92;;;15.20;;
11743;SDS011;5929;51.906;7.674;2022-11-20T05:08:36;25.80;;;16.63;;
11743;SDS011;5929;51.906;7.674;2022-11-20T05:11:03;27.92;;;16.67;;
11743;SDS011;5929;51.906;7.674;2022-11-20T05:13:33;26.48;;;15.90;;
11743;SDS011;5929;51.906;7.674;2022-11-20T05:16:01;26.17;;;14.88;;
11743;SDS011;5929;51.906;7.674;2022-11-20T05:18:31;27.52;;;15.93;;
11743;SDS011;5929;51.906;7.674;2022-11-20T05:20:58;25.08;;;14.63;;
11743;SDS011;5929;51.906;7.674;2022-11-20T05:23:26;24.75;;;15.18;;
11743;SDS011;5929;51.906;7.674;2022-11-20T05:25:53;26.23;;;17.08;;
11743;SDS011;5929;51.906;7.674;2022-11-20T05:28:21;26.98;;;16.35;;
11743;SDS011;5929;51.906;7.674;2022-11-20T05:30:50;25.55;;;16.20;;
11743;SDS011;5929;51.906;7.674;2022-11-20T05:33:17;29.42;;;16.90;;
11743;SDS011;5929;51.906;7.674;2022-11-20T05:35:44;26.80;;;15.93;;
11743;SDS011;5929;51.906;7.674;2022-11-20T05:38:13;30.38;;;16.75;;
11743;SDS011;5929;51.906;7.674;2022-11-20T05:40:40;28.65;;;17.15;;
11743;SDS011;5929;51.906;7.674;2022-11-20T05:43:07;26.02;;;17.42;;
11743;SDS011;5929;51.906;7.674;2022-11-20T05:45:34;29.23;;;17.35;;
11743;SDS011;5929;51.906;7.674;2022-11-20T05:48:02;26.52;;;16.80;;
11743;SDS011;5929;51.906;7.674;2022-11-20T05:50:29;27.33;;;17.52;;
11743;SDS011;5929;51.906;7.674;2022-11-20T05:52:57;30.08;;;17.55;;
11743;SDS011;5929;51.906;7.674;2022-11-20T05:55:24;24.58;;;16.05;;
11743;SDS011;5929;51.906;7.674;2022-11-20T05:57:52;28.98;;;16.90;;
11743;SDS011;5929;51.906;7.674;2022-11-20T06:00:19;30.10;;;19.38;;
11743;SDS011;5929;51.906;7.674;2022-11-20T06:02:46;31.90;;;19.15;;
11743;SDS011;5929;51.906;7.674;2022-11-20T06:05:15;32.58;;;20.08;;
11743;SDS011;5929;51.906;7.674;2022-11-20T06:07:42;31.60;;;20.58;;
11743;SDS011;5929;51.906;7.674;2022-11-20T06:10:09;36.25;;;20.80;;
11743;SDS011;5929;51.906;7.674;2022-11-20T06:12:36;32.25;;;19.58;;
11743;SDS011;5929;51.906;7.674;2022-11-20T06:15:05;31.17;;;19.38;;
11743;SDS011;5929;51.906;7.674;2022-11-20T06:17:33;33.80;;;20.55;;
11743;SDS011;5929;51.906;7.674;2022-11-20T06:19:59;31.63;;;19.10;;
11743;SDS011;5929;51.906;7.674;2022-11-20T06:22:30;34.80;;;20.08;;
11743;SDS011;5929;51.906;7.674;2022-11-20T06:24:58;29.45;;;18.20;;
11743;SDS011;5929;51.906;7.674;2022-11-20T06:27:25;33.22;;;18.63;;
11743;SDS011;5929;51.906;7.674;2022-11-20T06:29:52;35.67;;;18.73;;
11743;SDS011;5929;51.906;7.674;2022-11-20T06:32:19;34.03;;;18.02;;
11743;SDS011;5929;51.906;7.674;2022-11-20T06:34:46;32.40;;;18.00;;
11743;SDS011;5929;51.906;7.674;2022-11-20T06:37:13;35.47;;;19.08;;
11743;SDS011;5929;51.906;7.674;2022-11-20T06:39:41;37.58;;;19.13;;
11743;SDS011;5929;51.906;7.674;2022-11-20T06:42:09;32.03;;;18.45;;
11743;SDS011;5929;51.906;7.674;2022-11-20T06:44:35;31.35;;;18.02;;
11743;SDS011;5929;51.906;7.674;2022-11-20T06:47:02;40.10;;;18.45;;
11743;SDS011;5929;51.906;7.674;2022-11-20T06:49:29;36.08;;;19.92;;
11743;SDS011;5929;51.906;7.674;2022-11-20T06:51:56;41.95;;;20.90;;
11743;SDS011;5929;51.906;7.674;2022-11-20T06:54:23;36.20;;;18.88;;
11743;SDS011;5929;51.906;7.674;2022-11-20T06:56:51;35.92;;;19.92;;
11743;SDS011;5929;51.906;7.674;2022-11-20T06:59:18;40.38;;;19.85;;
11743;SDS011;5929;51.906;7.674;2022-11-20T07:01:45;32.35;;;19.02;;
11743;SDS011;5929;51.906;7.674;2022-11-20T07:04:14;43.03;;;19.83;;
11743;SDS011;5929;51.906;7.674;2022-11-20T07:06:41;40.10;;;19.58;;
11743;SDS011;5929;51.906;7.674;2022-11-20T07:09:08;44.35;;;21.17;;
11743;SDS011;5929;51.906;7.674;2022-11-20T07:11:35;46.17;;;20.48;;
11743;SDS011;5929;51.906;7.674;2022-11-20T07:14:03;44.83;;;21.10;;
11743;SDS011;5929;51.906;7.674;2022-11-20T07:16:30;35.78;;;19.70;;
11743;SDS011;5929;51.906;7.674;2022-11-20T07:18:59;41.95;;;19.50;;
11743;SDS011;5929;51.906;7.674;2022-11-20T07:21:26;65.47;;;37.03;;
11743;SDS011;5929;51.906;7.674;2022-11-20T07:23:53;44.05;;;21.48;;
11743;SDS011;5929;51.906;7.674;2022-11-20T07:26:20;46.78;;;21.52;;
11743;SDS011;5929;51.906;7.674;2022-11-20T07:28:47;44.03;;;20.92;;
11743;SDS011;5929;51.906;7.674;2022-11-20T07:31:15;43.75;;;20.88;;
11743;SDS011;5929;51.906;7.674;2022-11-20T07:33:42;47.70;;;22.23;;
11743;SDS011;5929;51.906;7.674;2022-11-20T07:36:08;49.90;;;23.48;;
11743;SDS011;5929;51.906;7.674;2022-11-20T07:38:36;44.95;;;22.50;;
11743;SDS011;5929;51.906;7.674;2022-11-20T07:41:03;46.50;;;21.67;;
11743;SDS011;5929;51.906;7.674;2022-11-20T07:43:30;48.60;;;23.73;;
11743;SDS011;5929;51.906;7.674;2022-11-20T07:45:58;48.95;;;22.98;;
11743;SDS011;5929;51.906;7.674;2022-11-20T07:48:26;53.00;;;25.77;;
11743;SDS011;5929;51.906;7.674;2022-11-20T07:50:53;51.33;;;24.40;;
11743;SDS011;5929;51.906;7.674;2022-11-20T07:53:20;55.00;;;23.42;;
11743;SDS011;5929;51.906;7.674;2022-11-20T07:55:48;45.90;;;23.80;;
11743;SDS011;5929;51.906;7.674;2022-11-20T07:58:17;48.67;;;23.42;;
11743;SDS011;5929;51.906;7.674;2022-11-20T08:00:44;48.03;;;23.77;;
11743;SDS011;5929;51.906;7.674;2022-11-20T08:03:11;49.08;;;24.60;;
11743;SDS011;5929;51.906;7.674;2022-11-20T08:05:40;45.05;;;25.23;;
11743;SDS011;5929;51.906;7.674;2022-11-20T08:08:07;50.78;;;27.17;;
11743;SDS011;5929;51.906;7.674;2022-11-20T08:10:33;55.63;;;26.88;;
11743;SDS011;5929;51.906;7.674;2022-11-20T08:13:00;50.60;;;25.42;;
11743;SDS011;5929;51.906;7.674;2022-11-20T08:15:47;49.20;;;24.45;;
11743;SDS011;5929;51.906;7.674;2022-11-20T08:18:16;50.03;;;25.23;;
11743;SDS011;5929;51.906;7.674;2022-11-20T08:20:44;60.55;;;32.53;;
11743;SDS011;5929;51.906;7.674;2022-11-20T08:23:11;48.40;;;25.30;;
11743;SDS011;5929;51.906;7.674;2022-11-20T08:25:38;55.08;;;25.88;;
11743;SDS011;5929;51.906;7.674;2022-11-20T08:28:06;57.08;;;26.88;;
11743;SDS011;5929;51.906;7.674;2022-11-20T08:30:34;49.97;;;25.17;;
11743;SDS011;5929;51.906;7.674;2022-11-20T08:33:02;56.05;;;25.85;;
11743;SDS011;5929;51.906;7.674;2022-11-20T08:35:32;50.47;;;25.50;;
11743;SDS011;5929;51.906;7.674;2022-11-20T08:38:02;53.00;;;26.25;;
11743;SDS011;5929;51.906;7.674;2022-11-20T08:40:30;47.60;;;26.42;;
11743;SDS011;5929;51.906;7.674;2022-11-20T08:42:57;46.60;;;22.23;;
11743;SDS011;5929;51.906;7.674;2022-11-20T08:45:24;37.05;;;21.00;;
11743;SDS011;5929;51.906;7.674;2022-11-20T08:47:51;42.42;;;21.55;;
11743;SDS011;5929;51.906;7.674;2022-11-20T08:50:18;43.58;;;22.17;;
11743;SDS011;5929;51.906;7.674;2022-11-20T08:52:45;35.88;;;19.90;;
11743;SDS011;5929;51.906;7.674;2022-11-20T08:55:13;43.38;;;22.75;;
11743;SDS011;5929;51.906;7.674;2022-11-20T08:57:40;46.72;;;22.52;;
11743;SDS011;5929;51.906;7.674;2022-11-20T09:00:09;39.55;;;21.73;;
11743;SDS011;5929;51.906;7.674;2022-11-20T09:02:37;31.63;;;18.88;;
11743;SDS011;5929;51.906;7.674;2022-11-20T09:05:04;37.95;;;20.23;;
11743;SDS011;5929;51.906;7.674;2022-11-20T09:07:32;29.85;;;18.48;;
11743;SDS011;5929;51.906;7.674;2022-11-20T09:09:59;35.20;;;20.63;;
11743;SDS011;5929;51.906;7.674;2022-11-20T09:12:27;32.60;;;20.05;;
11743;SDS011;5929;51.906;7.674;2022-11-20T09:14:54;32.72;;;19.92;;
11743;SDS011;5929;51.906;7.674;2022-11-20T09:17:21;32.97;;;20.00;;
11743;SDS011;5929;51.906;7.674;2022-11-20T09:19:48;39.15;;;22.05;;
11743;SDS011;5929;51.906;7.674;2022-11-20T09:22:15;40.90;;;23.27;;
11743;SDS011;5929;51.906;7.674;2022-11-20T09:24:42;46.80;;;23.05;;
11743;SDS011;5929;51.906;7.674;2022-11-20T09:27:10;46.40;;;24.23;;
11743;SDS011;5929;51.906;7.674;2022-11-20T09:29:39;39.03;;;21.75;;
11743;SDS011;5929;51.906;7.674;2022-11-20T09:32:05;36.20;;;20.75;;
11743;SDS011;5929;51.906;7.674;2022-11-20T09:34:33;37.35;;;21.98;;
11743;SDS011;5929;51.906;7.674;2022-11-20T09:37:02;38.97;;;21.75;;
11743;SDS011;5929;51.906;7.674;2022-11-20T09:39:29;32.05;;;21.08;;
11743;SDS011;5929;51.906;7.674;2022-11-20T09:41:59;31.63;;;19.67;;
11743;SDS011;5929;51.906;7.674;2022-11-20T09:45:12;33.20;;;21.77;;
11743;SDS011;5929;51.906;7.674;2022-11-20T09:50:49;38.85;;;20.75;;
11743;SDS011;5929;51.906;7.674;2022-11-20T09:53:25;34.85;;;21.30;;
11743;SDS011;5929;51.906;7.674;2022-11-20T09:55:59;34.15;;;21.35;;
11743;SDS011;5929;51.906;7.674;2022-11-20T09:58:28;30.92;;;20.52;;
11743;SDS011;5929;51.906;7.674;2022-11-20T10:01:03;35.78;;;22.67;;
11743;SDS011;5929;51.906;7.674;2022-11-20T10:03:40;36.25;;;21.30;;
11743;SDS011;5929;51.906;7.674;2022-11-20T10:06:12;35.83;;;23.33;;
11743;SDS011;5929;51.906;7.674;2022-11-20T10:08:43;38.20;;;23.13;;
11743;SDS011;5929;51.906;7.674;2022-11-20T10:11:20;37.72;;;23.38;;
11743;SDS011;5929;51.906;7.674;2022-11-20T10:13:55;36.05;;;23.42;;
11743;SDS011;5929;51.906;7.674;2022-11-20T10:16:31;35.72;;;21.98;;
11743;SDS011;5929;51.906;7.674;2022-11-20T10:19:12;40.05;;;22.75;;
11743;SDS011;5929;51.906;7.674;2022-11-20T10:21:53;32.47;;;22.38;;
11743;SDS011;5929;51.906;7.674;2022-11-20T10:24:34;32.25;;;21.95;;
11743;SDS011;5929;51.906;7.674;2022-11-20T10:27:22;35.00;;;21.65;;
11743;SDS011;5929;51.906;7.674;2022-11-20T10:30:02;33.92;;;21.70;;
11743;SDS011;5929;51.906;7.674;2022-11-20T10:32:36;34.97;;;23.30;;
11743;SDS011;5929;51.906;7.674;2022-11-20T10:35:09;34.80;;;22.08;;
11743;SDS011;5929;51.906;7.674;2022-11-20T10:37:44;31.80;;;21.45;;
11743;SDS011;5929;51.906;7.674;2022-11-20T10:40:18;31.88;;;20.40;;
11743;SDS011;5929;51.906;7.674;2022-11-20T10:42:49;29.88;;;17.45;;
11743;SDS011;5929;51.906;7.674;2022-11-20T10:45:25;25.35;;;16.92;;
11743;SDS011;5929;51.906;7.674;2022-11-20T10:48:19;21.67;;;14.85;;
11743;SDS011;5929;51.906;7.674;2022-11-20T10:50:59;21.35;;;15.32;;
11743;SDS011;5929;51.906;7.674;2022-11-20T10:53:51;21.63;;;14.73;;
11743;SDS011;5929;51.906;7.674;2022-11-20T10:56:25;18.30;;;14.13;;
11743;SDS011;5929;51.906;7.674;2022-11-20T10:59:03;19.73;;;14.55;;
11743;SDS011;5929;51.906;7.674;2022-11-20T11:01:52;21.05;;;14.27;;
11743;SDS011;5929;51.906;7.674;2022-11-20T11:04:30;19.90;;;14.15;;
11743;SDS011;5929;51.906;7.674;2022-11-20T11:07:05;21.15;;;14.98;;
11743;SDS011;5929;51.906;7.674;2022-11-20T11:09:38;18.08;;;13.95;;
11743;SDS011;5929;51.906;7.674;2022-11-20T11:12:11;20.75;;;15.23;;
11743;SDS011;5929;51.906;7.674;2022-11-20T11:14:42;17.80;;;14.07;;
11743;SDS011;5929;51.906;7.674;2022-11-20T11:17:20;21.10;;;14.95;;
11743;SDS011;5929;51.906;7.674;2022-11-20T11:20:01;18.50;;;13.95;;
11743;SDS011;5929;51.906;7.674;2022-11-20T11:22:31;18.13;;;11.98;;
11743;SDS011;5929;51.906;7.674;2022-11-20T11:25:00;18.92;;;13.75;;
11743;SDS011;5929;51.906;7.674;2022-11-20T11:27:27;17.60;;;12.93;;
11743;SDS011;5929;51.906;7.674;2022-11-20T11:30:11;18.60;;;13.90;;
11743;SDS011;5929;51.906;7.674;2022-11-20T11:32:40;20.40;;;13.82;;
11743;SDS011;5929;51.906;7.674;2022-11-20T11:35:18;17.42;;;13.55;;
11743;SDS011;5929;51.906;7.674;2022-11-20T11:37:47;17.85;;;12.63;;
11743;SDS011;5929;51.906;7.674;2022-11-20T11:40:16;17.73;;;13.05;;
11743;SDS011;5929;51.906;7.674;2022-11-20T11:42:46;16.27;;;10.77;;
11743;SDS011;5929;51.906;7.674;2022-11-20T11:45:19;14.57;;;10.27;;
11743;SDS011;5929;51.906;7.674;2022-11-20T11:47:46;14.68;;;11.07;;
11743;SDS011;5929;51.906;7.674;2022-11-20T11:50:17;17.70;;;10.63;;
11743;SDS011;5929;51.906;7.674;2022-11-20T11:52:48;14.60;;;10.27;;
11743;SDS011;5929;51.906;7.674;2022-11-20T11:55:23;12.80;;;9.35;;
11743;SDS011;5929;51.906;7.674;2022-11-20T11:57:56;12.70;;;8.07;;
11743;SDS011;5929;51.906;7.674;2022-11-20T12:00:30;12.10;;;8.35;;
11743;SDS011;5929;51.906;7.674;2022-11-20T12:03:02;11.30;;;7.40;;
11743;SDS011;5929;51.906;7.674;2022-11-20T12:05:36;12.95;;;8.10;;
11743;SDS011;5929;51.906;7.674;2022-11-20T12:08:11;12.00;;;7.60;;
11743;SDS011;5929;51.906;7.674;2022-11-20T12:10:45;12.35;;;7.80;;
11743;SDS011;5929;51.906;7.674;2022-11-20T12:13:30;10.40;;;6.68;;
11743;SDS011;5929;51.906;7.674;2022-11-20T12:16:03;11.77;;;6.78;;
11743;SDS011;5929;51.906;7.674;2022-11-20T12:18:31;11.60;;;6.97;;
11743;SDS011;5929;51.906;7.674;2022-11-20T12:21:04;11.38;;;7.15;;
11743;SDS011;5929;51.906;7.674;2022-11-20T12:24:05;14.98;;;8.10;;
11743;SDS011;5929;51.906;7.674;2022-11-20T12:26:52;13.27;;;7.70;;
11743;SDS011;5929;51.906;7.674;2022-11-20T12:29:30;12.73;;;8.20;;
11743;SDS011;5929;51.906;7.674;2022-11-20T12:32:17;13.88;;;8.88;;
11743;SDS011;5929;51.906;7.674;2022-11-20T12:34:58;17.10;;;9.73;;
11743;SDS011;5929;51.906;7.674;2022-11-20T12:37:36;15.85;;;10.35;;
11743;SDS011;5929;51.906;7.674;2022-11-20T12:40:18;16.08;;;9.82;;
11743;SDS011;5929;51.906;7.674;2022-11-20T12:42:55;18.05;;;10.40;;
11743;SDS011;5929;51.906;7.674;2022-11-20T12:48:50;18.42;;;11.32;;
11743;SDS011;5929;51.906;7.674;2022-11-20T12:51:33;16.88;;;12.00;;
11743;SDS011;5929;51.906;7.674;2022-11-20T12:54:23;19.05;;;11.85;;
11743;SDS011;5929;51.906;7.674;2022-11-20T12:57:18;16.85;;;10.55;;
11743;SDS011;5929;51.906;7.674;2022-11-20T12:59:57;18.65;;;13.00;;
11743;SDS011;5929;51.906;7.674;2022-11-20T13:02:34;19.08;;;12.95;;
11743;SDS011;5929;51.906;7.674;2022-11-20T13:05:24;21.67;;;14.30;;
11743;SDS011;5929;51.906;7.674;2022-11-20T13:07:57;25.95;;;15.35;;
11743;SDS011;5929;51.906;7.674;2022-11-20T13:10:30;24.55;;;14.57;;
11743;SDS011;5929;51.906;7.674;2022-11-20T13:13:07;26.05;;;16.67;;
11743;SDS011;5929;51.906;7.674;2022-11-20T13:15:43;29.67;;;16.33;;
11743;SDS011;5929;51.906;7.674;2022-11-20T13:18:16;26.85;;;16.77;;
11743;SDS011;5929;51.906;7.674;2022-11-20T13:20:47;27.77;;;17.63;;
11743;SDS011;5929;51.906;7.674;2022-11-20T13:23:22;26.45;;;16.63;;
11743;SDS011;5929;51.906;7.674;2022-11-20T13:28:42;24.48;;;16.27;;
11743;SDS011;5929;51.906;7.674;2022-11-20T13:31:24;25.20;;;17.23;;
11743;SDS011;5929;51.906;7.674;2022-11-20T13:33:56;29.00;;;19.13;;
11743;SDS011;5929;51.906;7.674;2022-11-20T13:36:26;29.25;;;19.58;;
11743;SDS011;5929;51.906;7.674;2022-11-20T13:38:59;30.38;;;19.45;;
11743;SDS011;5929;51.906;7.674;2022-11-20T13:41:28;30.35;;;20.48;;
11743;SDS011;5929;51.906;7.674;2022-11-20T13:43:59;30.80;;;19.35;;
11743;SDS011;5929;51.906;7.674;2022-11-20T13:46:36;32.58;;;20.25;;
11743;SDS011;5929;51.906;7.674;2022-11-20T13:49:09;31.23;;;19.45;;
11743;SDS011;5929;51.906;7.674;2022-11-20T13:51:43;33.83;;;19.48;;
11743;SDS011;5929;51.906;7.674;2022-11-20T13:54:40;29.17;;;19.98;;
11743;SDS011;5929;51.906;7.674;2022-11-20T13:57:33;31.58;;;19.77;;
11743;SDS011;5929;51.906;7.674;2022-11-20T14:00:11;33.03;;;20.35;;
11743;SDS011;5929;51.906;7.674;2022-11-20T14:02:40;31.40;;;19.35;;
11743;SDS011;5929;51.906;7.674;2022-11-20T14:05:16;33.15;;;20.52;;
11743;SDS011;5929;51.906;7.674;2022-11-20T14:07:46;30.10;;;19.40;;
11743;SDS011;5929;51.906;7.674;2022-11-20T14:10:22;33.20;;;21.00;;
11743;SDS011;5929;51.906;7.674;2022-11-20T14:12:52;31.90;;;19.13;;
11743;SDS011;5929;51.906;7.674;2022-11-20T14:15:32;34.15;;;20.92;;
11743;SDS011;5929;51.906;7.674;2022-11-20T14:18:11;34.85;;;21.58;;
11743;SDS011;5929;51.906;7.674;2022-11-20T14:20:39;30.67;;;19.52;;
11743;SDS011;5929;51.906;7.674;2022-11-20T14:23:08;33.85;;;20.55;;
11743;SDS011;5929;51.906;7.674;2022-11-20T14:25:36;31.48;;;19.83;;
11743;SDS011;5929;51.906;7.674;2022-11-20T14:28:11;33.95;;;21.13;;
11743;SDS011;5929;51.906;7.674;2022-11-20T14:30:46;34.80;;;21.27;;
11743;SDS011;5929;51.906;7.674;2022-11-20T14:33:15;32.20;;;20.80;;
11743;SDS011;5929;51.906;7.674;2022-11-20T14:35:44;33.13;;;21.88;;
11743;SDS011;5929;51.906;7.674;2022-11-20T14:38:18;38.17;;;21.73;;
11743;SDS011;5929;51.906;7.674;2022-11-20T14:40:48;33.80;;;21.65;;
11743;SDS011;5929;51.906;7.674;2022-11-20T14:43:18;36.53;;;22.15;;
11743;SDS011;5929;51.906;7.674;2022-11-20T14:45:48;38.05;;;22.88;;
11743;SDS011;5929;51.906;7.674;2022-11-20T14:48:22;34.28;;;21.38;;
11743;SDS011;5929;51.906;7.674;2022-11-20T14:51:01;32.17;;;21.02;;
11743;SDS011;5929;51.906;7.674;2022-11-20T14:53:28;33.58;;;20.85;;
11743;SDS011;5929;51.906;7.674;2022-11-20T14:55:56;32.35;;;20.55;;
11743;SDS011;5929;51.906;7.674;2022-11-20T14:58:26;35.17;;;22.00;;
11743;SDS011;5929;51.906;7.674;2022-11-20T15:00:55;32.95;;;20.52;;
11743;SDS011;5929;51.906;7.674;2022-11-20T15:03:31;32.17;;;19.88;;
11743;SDS011;5929;51.906;7.674;2022-11-20T15:06:02;32.70;;;20.30;;
11743;SDS011;5929;51.906;7.674;2022-11-20T15:08:29;31.05;;;20.40;;
11743;SDS011;5929;51.906;7.674;2022-11-20T15:10:56;32.75;;;20.27;;